Airport Name : Sabiha Gokcen

Other Name : Istanbul Sabiha

ICAO : LTFJ

IATA :

FAA :

Latitude : 40.898553

Longitude : 29.309219

Country : Turkey

Local Date and Time : 7/16/2019 9:39:00 PM

 

TAF (Terminal Aerodrome Forecast)

TAF LTFJ 161640Z 1618/1718 03009KT CAVOK BECMG 1700/1703 SCT035 BKN100 BECMG 1705/1708 03016G28KT TEMPO 1708/1712 4000 TSRA SCT020CB BKN025 BECMG 1715/1718 03008KT

 

METAR (METeorological Aerodrome Report)

LTFJ 161820Z 03012KT CAVOK 22/16 Q1008 NOSIG RMK RWY24 01008KT

LTFJ 161750Z 04012KT CAVOK 22/16 Q1008 NOSIG RMK RWY24 02008KT

LTFJ 161720Z 05015KT CAVOK 23/16 Q1008 NOSIG RMK RWY24 04011KT

LTFJ 161650Z 05016KT CAVOK 23/16 Q1008 NOSIG RMK RWY24 03012KT

LTFJ 161620Z 04017KT CAVOK 24/16 Q1008 NOSIG RMK RWY24 03012KT

LTFJ 161550Z 04016KT CAVOK 25/15 Q1008 NOSIG RMK RWY24 05014KT

LTFJ 161520Z 05017KT CAVOK 25/14 Q1008 NOSIG RMK RWY24 03014KT

LTFJ 161450Z 04017KT 9999 FEW040 25/15 Q1008 NOSIG RMK RWY24 03013KT